CDT,Max TemperatureF,Mean TemperatureF,Min TemperatureF,Max Dew PointF,MeanDew PointF,Min DewpointF,Max Humidity, Mean Humidity, Min Humidity, Max Sea Level PressureIn, Mean Sea Level PressureIn, Min Sea Level PressureIn, Max VisibilityMiles, Mean VisibilityMiles, Min VisibilityMiles, Max Wind SpeedMPH, Mean Wind SpeedMPH, Max Gust SpeedMPH,PrecipitationIn, CloudCover, Events, WindDirDegrees
2013-7-1,81,69,57,54,51,47,75,52,29,30.21,30.16,30.13,10,10,5,14,7,21,0.00,1,,7
2013-7-2,80,70,61,59,54,50,81,58,36,30.19,30.13,30.08,10,10,3,15,3,20,0.10,2,Rain-Thunderstorm,216
2013-7-3,82,70,58,60,56,51,90,60,35,30.08,30.03,29.96,10,10,7,10,3,,0.10,0,Thunderstorm,153
2013-7-4,85,72,60,58,55,51,81,54,31,30.00,29.96,29.90,10,10,10,20,10,25,0.00,0,,168
2013-7-5,84,74,65,63,59,54,73,56,43,29.93,29.90,29.84,10,10,10,23,14,29,0.00,1,,163
2013-7-6,87,79,71,66,63,59,68,59,45,29.89,29.86,29.82,10,10,10,21,13,28,0.00,0,,159
2013-7-7,90,81,72,71,65,59,76,59,46,29.93,29.87,29.84,10,10,10,21,12,28,0.00,1,,187
2013-7-8,88,80,72,72,70,68,92,72,53,29.98,29.95,29.91,10,10,5,9,4,,0.01,2,Rain-Thunderstorm,166
2013-7-9,92,82,73,74,71,68,87,69,47,29.98,29.93,29.88,10,10,4,14,8,36,0.18,1,Rain-Thunderstorm,97
2013-7-10,81,74,67,68,63,58,90,67,46,30.12,30.06,29.98,10,10,7,14,7,20,0.01,0,,9
2013-7-11,84,74,63,62,59,56,83,60,42,30.11,30.05,29.98,10,10,7,14,6,18,0.00,0,,130
2013-7-12,88,78,69,69,63,57,69,58,51,30.02,29.98,29.93,10,10,10,21,13,28,0.00,0,,150
2013-7-13,89,80,72,72,65,59,70,60,51,29.99,29.96,29.93,10,10,10,18,14,25,0.00,1,Rain,149
2013-7-14,85,78,70,65,60,55,71,56,37,30.17,30.07,30.00,10,10,10,15,11,22,0.00,1,Rain,130
2013-7-15,87,76,65,68,64,60,84,66,48,30.22,30.18,30.14,10,10,4,15,5,,0.00,2,Rain,116
2013-7-16,89,78,68,69,65,62,90,64,45,30.28,30.24,30.19,10,10,10,10,4,,0.00,1,,172
2013-7-17,91,81,72,70,68,66,85,64,47,30.32,30.26,30.18,10,10,10,14,5,16,0.00,1,,170
2013-7-18,91,82,72,69,67,64,83,61,41,30.19,30.08,29.95,10,10,10,25,10,30,0.00,0,,188
2013-7-19,92,82,74,70,64,57,75,56,33,29.96,29.93,29.90,10,10,7,14,9,20,0.00,1,Rain-Thunderstorm,234
2013-7-20,86,75,64,64,61,57,80,61,40,30.03,29.95,29.87,10,10,7,13,5,18,0.00,0,,71
2013-7-21,88,78,67,72,66,61,91,72,48,29.94,29.85,29.79,10,10,3,14,4,23,0.05,2,Rain-Thunderstorm,176
2013-7-22,92,80,68,74,69,60,94,73,48,29.87,29.81,29.77,10,9,2,16,6,21,0.21,0,Rain-Thunderstorm,196
2013-7-23,80,72,64,62,61,58,92,69,48,30.02,29.95,29.86,10,10,4,18,9,25,0.02,1,Rain-Thunderstorm,28
2013-7-24,82,70,58,62,58,55,88,67,44,30.10,30.06,30.01,10,10,10,7,4,16,0.00,0,,31
2013-7-25,82,74,66,67,63,61,94,74,52,30.06,30.03,29.98,10,10,5,18,6,23,0.07,4,Rain,179
2013-7-26,75,68,60,66,57,50,95,69,44,30.12,30.07,29.99,10,9,1,21,8,26,0.00,1,,329
2013-7-27,72,62,53,52,47,42,88,59,37,30.15,30.09,30.02,10,10,10,15,6,21,0.00,1,,336
2013-7-28,76,62,50,50,46,43,85,57,35,30.08,30.06,30.03,10,10,10,9,2,,0.00,0,,31
2013-7-29,66,62,58,63,56,47,95,79,61,30.07,30.06,30.02,10,9,2,12,6,17,0.04,7,Rain,112
2013-7-30,73,68,63,66,63,62,96,87,71,30.12,30.07,30.04,10,6,0,9,4,,0.01,8,Fog,15
2013-7-31,83,72,61,66,63,60,96,74,46,30.16,30.11,30.06,10,8,0,7,1,,0.00,3,Fog,312